createdAt,value
2022-10-15T00:01:20.732Z,14.40
2022-10-15T00:03:47.454Z,14.39
2022-10-15T00:06:17.359Z,14.46
2022-10-15T00:08:44.708Z,14.49
2022-10-15T00:11:17.596Z,14.40
2022-10-15T00:13:45.290Z,14.37
2022-10-15T00:16:15.348Z,14.39
2022-10-15T00:18:42.839Z,14.40
2022-10-15T00:21:12.044Z,14.47
2022-10-15T00:23:39.092Z,14.39
2022-10-15T00:26:08.577Z,14.33
2022-10-15T00:28:35.610Z,14.37
2022-10-15T00:31:08.702Z,14.42
2022-10-15T00:33:35.951Z,14.61
2022-10-15T00:36:09.239Z,14.46
2022-10-15T00:38:36.475Z,14.43
2022-10-15T00:41:04.893Z,14.49
2022-10-15T00:43:53.179Z,14.51
2022-10-15T00:46:39.804Z,14.50
2022-10-15T00:49:24.663Z,14.50
2022-10-15T00:51:59.322Z,14.47
2022-10-15T00:54:28.312Z,14.54
2022-10-15T00:56:55.568Z,14.49
2022-10-15T00:59:26.248Z,14.55
2022-10-15T01:01:54.662Z,14.61
2022-10-15T01:04:23.587Z,14.56
2022-10-15T01:06:50.211Z,14.48
2022-10-15T01:09:16.980Z,14.59
2022-10-15T01:11:50.671Z,14.63
2022-10-15T01:14:43.310Z,14.67
2022-10-15T01:17:18.972Z,14.56
2022-10-15T01:20:16.622Z,14.59
2022-10-15T01:22:58.359Z,14.56
2022-10-15T01:25:46.835Z,14.45
2022-10-15T01:28:58.684Z,14.65
2022-10-15T01:31:54.502Z,14.47
2022-10-15T01:34:35.656Z,14.64
2022-10-15T01:37:20.586Z,14.59
2022-10-15T01:39:55.560Z,14.58
2022-10-15T01:42:29.082Z,14.61
2022-10-15T01:45:00.767Z,14.50
2022-10-15T01:47:34.485Z,14.44
2022-10-15T01:50:03.582Z,14.45
2022-10-15T01:52:36.027Z,14.51
2022-10-15T01:55:05.758Z,14.43
2022-10-15T01:57:33.465Z,14.43
2022-10-15T02:00:02.085Z,14.35
2022-10-15T02:02:29.025Z,14.33
2022-10-15T02:04:55.706Z,14.17
2022-10-15T02:07:37.047Z,14.17
2022-10-15T02:10:18.458Z,14.15
2022-10-15T02:13:04.827Z,14.09
2022-10-15T02:15:55.701Z,14.00
2022-10-15T02:18:55.901Z,14.01
2022-10-15T02:21:48.304Z,13.99
2022-10-15T02:24:25.669Z,14.04
2022-10-15T02:26:58.036Z,13.99
2022-10-15T02:29:30.207Z,13.96
2022-10-15T02:31:59.274Z,13.91
2022-10-15T02:34:29.976Z,13.83
2022-10-15T02:37:03.766Z,13.77
2022-10-15T02:39:30.567Z,13.67
2022-10-15T02:41:57.776Z,13.69
2022-10-15T02:44:24.391Z,13.85
2022-10-15T02:46:51.218Z,13.98
2022-10-15T02:49:19.729Z,13.87
2022-10-15T02:51:46.383Z,14.00
2022-10-15T02:54:12.977Z,13.95
2022-10-15T02:56:39.866Z,13.87
2022-10-15T02:59:07.340Z,13.87
2022-10-15T03:01:34.637Z,13.88
2022-10-15T03:04:01.935Z,13.94
2022-10-15T03:06:28.874Z,13.96
2022-10-15T03:08:55.605Z,13.95
2022-10-15T03:11:22.274Z,13.94
2022-10-15T03:13:48.956Z,13.94
2022-10-15T03:16:15.668Z,13.94
2022-10-15T03:18:42.320Z,13.86
2022-10-15T03:21:09.097Z,13.97
2022-10-15T03:23:35.875Z,13.88
2022-10-15T03:26:02.514Z,13.93
2022-10-15T03:28:29.242Z,13.83
2022-10-15T03:30:55.879Z,13.82
2022-10-15T03:33:25.036Z,13.77
2022-10-15T03:35:52.791Z,13.82
2022-10-15T03:38:19.977Z,13.83
2022-10-15T03:40:46.886Z,13.79
2022-10-15T03:43:13.659Z,13.77
2022-10-15T03:45:40.579Z,13.83
2022-10-15T03:48:07.635Z,13.84
2022-10-15T03:50:34.550Z,13.77
2022-10-15T03:53:04.328Z,13.66
2022-10-15T03:55:31.350Z,13.57
2022-10-15T03:57:57.963Z,13.52
2022-10-15T04:00:24.642Z,13.53
2022-10-15T04:02:51.342Z,13.55
2022-10-15T04:05:18.036Z,13.67
2022-10-15T04:07:44.890Z,13.62
2022-10-15T04:10:11.577Z,13.66
2022-10-15T04:12:41.106Z,13.68
2022-10-15T04:15:08.263Z,13.70
2022-10-15T04:17:34.959Z,13.68
2022-10-15T04:20:01.674Z,13.65
2022-10-15T04:22:28.644Z,13.67
2022-10-15T04:24:55.378Z,13.69
2022-10-15T04:27:22.005Z,13.62
2022-10-15T04:29:51.775Z,13.61
2022-10-15T04:32:18.692Z,13.61
2022-10-15T04:34:48.145Z,13.54
2022-10-15T04:37:15.924Z,13.66
2022-10-15T04:39:42.889Z,13.64
2022-10-15T04:42:09.526Z,13.58
2022-10-15T04:44:36.129Z,13.55
2022-10-15T04:47:02.723Z,13.38
2022-10-15T04:49:29.369Z,13.37
2022-10-15T04:51:56.673Z,13.42
2022-10-15T04:54:23.394Z,13.32
2022-10-15T04:56:50.039Z,13.24
2022-10-15T04:59:16.688Z,13.19
2022-10-15T05:01:43.318Z,13.14
2022-10-15T05:04:13.250Z,13.20
2022-10-15T05:06:40.210Z,13.20
2022-10-15T05:09:07.275Z,13.24
2022-10-15T05:11:37.540Z,13.30
2022-10-15T05:14:04.675Z,13.22
2022-10-15T05:16:31.427Z,13.28
2022-10-15T05:19:06.187Z,13.27
2022-10-15T05:21:34.180Z,13.37
2022-10-15T05:24:01.420Z,13.31
2022-10-15T05:26:29.691Z,13.36
2022-10-15T05:28:58.205Z,13.39
2022-10-15T05:31:28.611Z,13.30
2022-10-15T05:33:55.684Z,13.34
2022-10-15T05:36:28.232Z,13.43
2022-10-15T05:38:57.545Z,13.51
2022-10-15T05:41:25.801Z,13.51
2022-10-15T05:43:54.457Z,13.52
2022-10-15T05:46:21.519Z,13.53
2022-10-15T05:48:56.700Z,13.51
2022-10-15T05:51:24.874Z,13.53
2022-10-15T05:53:52.733Z,13.59
2022-10-15T05:56:19.592Z,13.58
2022-10-15T05:58:46.361Z,13.49
2022-10-15T06:01:13.629Z,13.56
2022-10-15T06:03:41.830Z,13.52
2022-10-15T06:06:34.882Z,13.51
2022-10-15T06:09:04.437Z,13.67
2022-10-15T06:11:31.099Z,13.73
2022-10-15T06:13:57.937Z,13.83
2022-10-15T06:16:24.607Z,13.53
2022-10-15T06:18:53.395Z,13.67
2022-10-15T06:21:20.358Z,13.68
2022-10-15T06:23:47.322Z,13.55
2022-10-15T06:26:14.023Z,13.60
2022-10-15T06:28:40.906Z,13.75
2022-10-15T06:31:08.155Z,13.53
2022-10-15T06:33:35.580Z,13.53
2022-10-15T06:36:10.120Z,13.50
2022-10-15T06:38:37.185Z,13.44
2022-10-15T06:41:05.497Z,13.39
2022-10-15T06:43:34.134Z,13.47
2022-10-15T06:46:03.487Z,13.51
2022-10-15T06:48:30.198Z,13.58
2022-10-15T06:50:59.223Z,13.66
2022-10-15T06:53:25.979Z,13.52
2022-10-15T06:55:56.572Z,13.51
2022-10-15T06:58:23.348Z,13.60
2022-10-15T07:00:50.137Z,13.56
2022-10-15T07:03:16.846Z,13.57
2022-10-15T07:05:45.304Z,13.57
2022-10-15T07:08:16.815Z,13.42
2022-10-15T07:10:45.957Z,13.40
2022-10-15T07:13:16.134Z,13.55
2022-10-15T07:15:44.682Z,13.41
2022-10-15T07:18:11.334Z,13.42
2022-10-15T07:20:38.001Z,13.52
2022-10-15T07:23:04.677Z,13.47
2022-10-15T07:25:31.704Z,13.53
2022-10-15T07:27:58.646Z,13.62
2022-10-15T07:30:29.076Z,13.76
2022-10-15T07:32:57.314Z,13.68
2022-10-15T07:35:25.087Z,13.71
2022-10-15T07:37:51.830Z,13.73
2022-10-15T07:40:19.237Z,13.83
2022-10-15T07:42:52.859Z,13.62
2022-10-15T07:45:19.614Z,13.71
2022-10-15T07:47:46.283Z,13.64
2022-10-15T07:50:12.928Z,13.79
2022-10-15T07:52:39.944Z,13.85
2022-10-15T07:55:09.808Z,13.74
2022-10-15T07:57:36.473Z,13.93
2022-10-15T08:00:03.742Z,13.75
2022-10-15T08:02:30.477Z,13.85
2022-10-15T08:04:57.298Z,13.84
2022-10-15T08:07:23.940Z,13.86
2022-10-15T08:09:50.630Z,13.84
2022-10-15T08:12:17.459Z,13.78
2022-10-15T08:14:44.113Z,14.03
2022-10-15T08:17:11.466Z,13.84
2022-10-15T08:19:38.167Z,13.90
2022-10-15T08:22:05.645Z,13.90
2022-10-15T08:24:32.262Z,13.92
2022-10-15T08:26:59.024Z,13.88
2022-10-15T08:29:25.999Z,14.04
2022-10-15T08:31:52.592Z,13.94
2022-10-15T08:34:19.306Z,13.94
2022-10-15T08:36:46.205Z,13.96
2022-10-15T08:39:12.956Z,14.04
2022-10-15T08:41:50.243Z,14.06
2022-10-15T08:44:30.056Z,14.12
2022-10-15T08:47:07.308Z,14.29
2022-10-15T08:49:53.037Z,14.30
2022-10-15T08:52:43.055Z,14.11
2022-10-15T08:55:16.597Z,14.19
2022-10-15T08:57:46.218Z,13.97
2022-10-15T09:01:08.754Z,13.94
2022-10-15T09:03:44.635Z,14.09
2022-10-15T09:06:15.078Z,14.16
2022-10-15T09:09:00.605Z,14.22
2022-10-15T09:11:54.191Z,14.26
2022-10-15T09:14:27.961Z,14.37
2022-10-15T09:16:54.806Z,14.40
2022-10-15T09:20:07.839Z,14.55
2022-10-15T09:22:35.296Z,14.48
2022-10-15T09:25:23.051Z,14.74
2022-10-15T09:27:51.514Z,14.62
2022-10-15T09:30:33.873Z,14.78
2022-10-15T09:33:20.730Z,14.76
2022-10-15T09:35:56.068Z,14.57
2022-10-15T09:39:03.307Z,14.66
2022-10-15T09:41:56.433Z,14.62
2022-10-15T09:44:26.474Z,14.69
2022-10-15T09:46:53.266Z,14.61
2022-10-15T09:49:30.259Z,14.59
2022-10-15T09:52:06.465Z,14.50
2022-10-15T09:55:15.387Z,14.51
2022-10-15T09:57:48.976Z,14.58
2022-10-15T10:00:15.717Z,14.81
2022-10-15T10:02:42.579Z,14.95
2022-10-15T10:05:42.073Z,14.91
2022-10-15T10:08:24.212Z,14.98
2022-10-15T10:10:59.244Z,15.08
2022-10-15T10:13:30.236Z,15.00
2022-10-15T10:16:05.963Z,14.89
2022-10-15T10:18:33.131Z,14.78
2022-10-15T10:21:02.637Z,14.78
2022-10-15T10:23:39.529Z,14.96
2022-10-15T10:26:09.514Z,14.86
2022-10-15T10:28:49.049Z,14.76
2022-10-15T10:31:15.816Z,15.11
2022-10-15T10:33:47.783Z,15.14
2022-10-15T10:36:30.895Z,15.25
2022-10-15T10:39:15.808Z,15.45
2022-10-15T10:41:49.632Z,15.48
2022-10-15T10:44:28.545Z,15.68
2022-10-15T10:47:09.407Z,15.54
2022-10-15T10:49:40.323Z,15.75
2022-10-15T10:52:38.327Z,15.83
2022-10-15T10:55:06.591Z,15.84
2022-10-15T10:57:42.958Z,15.77
2022-10-15T11:00:17.439Z,15.90
2022-10-15T11:02:44.236Z,15.95
2022-10-15T11:05:12.404Z,15.89
2022-10-15T11:07:53.239Z,15.65
2022-10-15T11:10:33.429Z,15.75
2022-10-15T11:13:43.120Z,15.78
2022-10-15T11:16:33.760Z,15.98
2022-10-15T11:19:54.732Z,16.05
2022-10-15T11:22:54.245Z,16.15
2022-10-15T11:25:26.784Z,16.17
2022-10-15T11:28:12.216Z,16.34
2022-10-15T11:30:42.914Z,16.55
2022-10-15T11:33:21.761Z,16.39
2022-10-15T11:36:01.084Z,16.71
2022-10-15T11:38:50.872Z,16.53
2022-10-15T11:41:51.113Z,16.51
2022-10-15T11:44:35.216Z,16.42
2022-10-15T11:47:14.440Z,16.67
2022-10-15T11:49:59.332Z,16.65
2022-10-15T11:53:10.663Z,16.54
2022-10-15T11:55:52.313Z,16.48
2022-10-15T11:58:43.504Z,16.56
2022-10-15T12:01:20.243Z,16.67
2022-10-15T12:04:11.960Z,16.84
2022-10-15T12:06:46.473Z,16.83
2022-10-15T12:09:26.806Z,17.01
2022-10-15T12:12:04.303Z,17.03
2022-10-15T12:14:40.180Z,17.14
2022-10-15T12:17:31.325Z,17.05
2022-10-15T12:20:09.780Z,17.06
2022-10-15T12:23:00.981Z,16.95
2022-10-15T12:25:33.694Z,16.98
2022-10-15T12:28:15.583Z,17.05
2022-10-15T12:30:53.070Z,17.37
2022-10-15T12:33:45.349Z,17.34
2022-10-15T12:36:30.671Z,17.30
2022-10-15T12:39:11.592Z,17.34
2022-10-15T12:41:50.643Z,17.35
2022-10-15T12:44:22.478Z,17.17
2022-10-15T12:46:49.677Z,17.32
2022-10-15T12:49:30.882Z,17.37
2022-10-15T12:52:00.112Z,17.43
2022-10-15T12:54:57.838Z,17.41
2022-10-15T12:57:37.417Z,17.51
2022-10-15T13:00:29.334Z,17.61
2022-10-15T13:03:02.605Z,17.52
2022-10-15T13:05:30.875Z,17.57
2022-10-15T13:07:59.888Z,17.71
2022-10-15T13:10:39.601Z,17.67
2022-10-15T13:13:17.458Z,17.87
2022-10-15T13:15:54.490Z,17.73
2022-10-15T13:18:24.145Z,17.58
2022-10-15T13:20:54.580Z,17.49
2022-10-15T13:23:31.826Z,17.34
2022-10-15T13:26:27.722Z,17.09
2022-10-15T13:28:57.615Z,17.47
2022-10-15T13:31:30.456Z,17.41
2022-10-15T13:34:17.928Z,17.37
2022-10-15T13:36:45.326Z,17.34
2022-10-15T13:39:35.441Z,17.31
2022-10-15T13:42:26.377Z,17.02
2022-10-15T13:45:15.921Z,17.09
2022-10-15T13:47:51.153Z,17.16
2022-10-15T13:50:19.259Z,17.14
2022-10-15T13:52:49.998Z,17.12
2022-10-15T13:55:24.572Z,17.09
2022-10-15T13:57:57.109Z,17.17
2022-10-15T14:00:31.504Z,17.43
2022-10-15T14:03:22.477Z,17.44
2022-10-15T14:05:52.631Z,17.27
2022-10-15T14:08:22.950Z,17.48
2022-10-15T14:10:52.176Z,17.58
2022-10-15T14:13:18.913Z,17.47
2022-10-15T14:15:53.900Z,17.32
2022-10-15T14:18:33.341Z,17.21
2022-10-15T14:21:00.788Z,17.17
2022-10-15T14:23:28.396Z,17.30
2022-10-15T14:26:03.476Z,17.36
2022-10-15T14:28:32.936Z,17.37
2022-10-15T14:31:01.591Z,17.41
2022-10-15T14:33:37.475Z,17.48
2022-10-15T14:36:26.106Z,17.23
2022-10-15T14:38:54.984Z,17.14
2022-10-15T14:41:30.688Z,16.86
2022-10-15T14:44:18.736Z,16.75
2022-10-15T14:46:49.646Z,16.68
2022-10-15T14:49:26.871Z,16.78
2022-10-15T14:52:17.323Z,16.64
2022-10-15T14:54:59.551Z,16.77
2022-10-15T14:57:29.275Z,16.67
2022-10-15T14:59:57.685Z,16.60
2022-10-15T15:02:27.355Z,16.71
2022-10-15T15:05:12.512Z,16.72
2022-10-15T15:07:40.314Z,16.72
2022-10-15T15:10:08.895Z,16.59
2022-10-15T15:12:38.146Z,16.68
2022-10-15T15:15:12.586Z,16.85
2022-10-15T15:17:39.208Z,16.81
2022-10-15T15:20:06.516Z,16.66
2022-10-15T15:22:35.554Z,16.69
2022-10-15T15:25:06.666Z,16.78
2022-10-15T15:27:37.218Z,16.71
2022-10-15T15:30:06.719Z,16.67
2022-10-15T15:32:33.892Z,16.57
2022-10-15T15:35:00.836Z,16.57
2022-10-15T15:37:30.248Z,16.35
2022-10-15T15:39:56.972Z,16.38
2022-10-15T15:42:25.129Z,16.42
2022-10-15T15:44:52.922Z,16.31
2022-10-15T15:47:22.380Z,16.37
2022-10-15T15:49:49.059Z,16.53
2022-10-15T15:52:18.792Z,16.37
2022-10-15T15:54:48.868Z,16.33
2022-10-15T15:57:15.751Z,16.28
2022-10-15T15:59:42.393Z,16.26
2022-10-15T16:02:10.326Z,16.23
2022-10-15T16:04:37.147Z,16.26
2022-10-15T16:07:03.829Z,16.32
2022-10-15T16:09:30.606Z,16.09
2022-10-15T16:11:57.471Z,16.13
2022-10-15T16:14:24.200Z,16.07
2022-10-15T16:16:50.804Z,16.07
2022-10-15T16:19:17.485Z,16.00
2022-10-15T16:21:44.244Z,16.12
2022-10-15T16:24:10.989Z,16.04
2022-10-15T16:26:37.639Z,16.08
2022-10-15T16:29:04.343Z,16.14
2022-10-15T16:31:33.320Z,16.17
2022-10-15T16:33:59.919Z,16.16
2022-10-15T16:36:26.634Z,16.13
2022-10-15T16:38:53.904Z,16.06
2022-10-15T16:41:20.651Z,15.94
2022-10-15T16:43:48.278Z,15.78
2022-10-15T16:46:16.836Z,15.74
2022-10-15T16:48:43.667Z,15.72
2022-10-15T16:51:14.611Z,15.66
2022-10-15T16:53:43.022Z,15.67
2022-10-15T16:56:32.675Z,15.60
2022-10-15T16:58:59.303Z,15.60
2022-10-15T17:01:28.346Z,15.58
2022-10-15T17:03:55.532Z,15.40
2022-10-15T17:06:26.030Z,15.36
2022-10-15T17:08:54.678Z,15.37
2022-10-15T17:11:22.992Z,15.30
2022-10-15T17:13:53.927Z,15.22
2022-10-15T17:16:32.617Z,15.19
2022-10-15T17:18:59.498Z,15.12
2022-10-15T17:21:28.699Z,15.19
2022-10-15T17:23:57.735Z,15.31
2022-10-15T17:26:27.283Z,15.24
2022-10-15T17:28:54.429Z,15.08
2022-10-15T17:31:24.012Z,15.09
2022-10-15T17:34:02.643Z,15.10
2022-10-15T17:36:32.129Z,15.07
2022-10-15T17:39:00.093Z,15.18
2022-10-15T17:41:30.184Z,15.15
2022-10-15T17:43:57.609Z,15.07
2022-10-15T17:46:27.777Z,15.09
2022-10-15T17:48:55.649Z,15.08
2022-10-15T17:51:28.357Z,15.29
2022-10-15T17:53:55.577Z,15.21
2022-10-15T17:56:28.726Z,15.18
2022-10-15T17:58:56.310Z,15.18
2022-10-15T18:01:52.898Z,15.13
2022-10-15T18:04:20.255Z,15.01
2022-10-15T18:06:46.994Z,15.18
2022-10-15T18:09:13.708Z,15.17
2022-10-15T18:11:40.555Z,15.11
2022-10-15T18:14:07.605Z,15.09
2022-10-15T18:16:34.491Z,15.11
2022-10-15T18:19:01.198Z,15.18
2022-10-15T18:21:28.521Z,15.04
2022-10-15T18:23:58.471Z,15.05
2022-10-15T18:26:25.370Z,15.10
2022-10-15T18:28:53.756Z,15.06
2022-10-15T18:31:21.258Z,15.12
2022-10-15T18:33:53.574Z,15.09
2022-10-15T18:36:26.995Z,15.12
2022-10-15T18:38:54.214Z,15.17
2022-10-15T18:41:28.711Z,15.21
2022-10-15T18:43:58.055Z,15.19
2022-10-15T18:46:26.180Z,15.23
2022-10-15T18:48:53.250Z,15.23
2022-10-15T18:51:21.066Z,15.26
2022-10-15T18:53:48.111Z,15.34
2022-10-15T18:56:14.976Z,15.29
2022-10-15T18:58:43.010Z,15.26
2022-10-15T19:01:11.895Z,15.22
2022-10-15T19:03:38.970Z,15.24
2022-10-15T19:06:05.885Z,15.27
2022-10-15T19:08:32.631Z,15.25
2022-10-15T19:11:07.023Z,15.40
2022-10-15T19:13:33.836Z,15.43
2022-10-15T19:16:02.312Z,15.43
2022-10-15T19:18:30.148Z,15.38
2022-10-15T19:20:56.879Z,15.35
2022-10-15T19:23:23.832Z,15.45
2022-10-15T19:25:50.723Z,15.43
2022-10-15T19:28:17.645Z,15.45
2022-10-15T19:30:44.425Z,15.51
2022-10-15T19:33:11.102Z,15.48
2022-10-15T19:35:41.812Z,15.53
2022-10-15T19:38:08.730Z,15.51
2022-10-15T19:40:39.040Z,15.48
2022-10-15T19:43:06.882Z,15.49
2022-10-15T19:45:44.110Z,15.57
2022-10-15T19:48:12.292Z,15.52
2022-10-15T19:50:41.171Z,15.57
2022-10-15T19:53:11.687Z,15.44
2022-10-15T19:55:39.785Z,15.55
2022-10-15T19:58:06.806Z,15.50
2022-10-15T20:00:34.478Z,15.65
2022-10-15T20:03:01.596Z,15.59
2022-10-15T20:05:28.804Z,15.55
2022-10-15T20:07:56.399Z,15.48
2022-10-15T20:10:25.991Z,15.49
2022-10-15T20:12:53.573Z,15.49
2022-10-15T20:15:21.033Z,15.54
2022-10-15T20:17:48.131Z,15.48
2022-10-15T20:20:17.331Z,15.51
2022-10-15T20:22:44.006Z,15.54
2022-10-15T20:25:11.921Z,15.45
2022-10-15T20:27:38.540Z,15.43
2022-10-15T20:30:05.862Z,15.37
2022-10-15T20:32:35.830Z,15.33
2022-10-15T20:35:04.465Z,15.18
2022-10-15T20:37:31.151Z,15.32
2022-10-15T20:39:57.956Z,15.34
2022-10-15T20:42:25.228Z,15.42
2022-10-15T20:44:52.230Z,15.25
2022-10-15T20:47:19.449Z,15.26
2022-10-15T20:49:50.046Z,15.29
2022-10-15T20:52:16.695Z,15.35
2022-10-15T20:54:43.607Z,15.32
2022-10-15T20:57:10.809Z,15.29
2022-10-15T20:59:37.663Z,15.30
2022-10-15T21:02:04.394Z,15.28
2022-10-15T21:04:31.006Z,15.29
2022-10-15T21:06:57.680Z,15.24
2022-10-15T21:09:24.438Z,15.33
2022-10-15T21:11:51.174Z,15.29
2022-10-15T21:14:17.793Z,15.28
2022-10-15T21:16:46.508Z,15.07
2022-10-15T21:19:13.765Z,15.10
2022-10-15T21:21:40.506Z,14.99
2022-10-15T21:24:07.206Z,14.98
2022-10-15T21:26:33.990Z,14.98
2022-10-15T21:29:00.798Z,14.88
2022-10-15T21:31:27.694Z,14.97
2022-10-15T21:33:55.506Z,14.96
2022-10-15T21:36:27.627Z,15.04
2022-10-15T21:39:03.799Z,14.94
2022-10-15T21:41:32.372Z,14.92
2022-10-15T21:44:00.816Z,14.95
2022-10-15T21:46:28.002Z,14.92
2022-10-15T21:48:54.804Z,14.85
2022-10-15T21:51:25.489Z,14.80
2022-10-15T21:53:52.423Z,14.77
2022-10-15T21:56:19.765Z,14.76
2022-10-15T21:58:46.940Z,14.65
2022-10-15T22:01:19.103Z,14.57
2022-10-15T22:03:48.240Z,14.50
2022-10-15T22:06:15.391Z,14.55
2022-10-15T22:08:42.537Z,14.55
2022-10-15T22:11:19.950Z,14.58
2022-10-15T22:13:48.608Z,14.43
2022-10-15T22:16:16.681Z,14.47
2022-10-15T22:18:44.037Z,14.48
2022-10-15T22:21:22.901Z,14.44
2022-10-15T22:24:01.446Z,14.47
2022-10-15T22:26:31.165Z,14.62
2022-10-15T22:29:00.730Z,14.47
2022-10-15T22:31:27.950Z,14.54
2022-10-15T22:33:55.218Z,14.36
2022-10-15T22:36:27.387Z,14.33
2022-10-15T22:41:23.518Z,14.46
2022-10-15T22:43:50.208Z,14.44
2022-10-15T22:46:16.835Z,14.27
2022-10-15T22:48:49.462Z,14.32
2022-10-15T22:51:16.472Z,14.35
2022-10-15T22:53:44.263Z,14.32
2022-10-15T22:56:16.702Z,14.36
2022-10-15T22:58:43.653Z,14.29
2022-10-15T23:01:14.223Z,14.21
2022-10-15T23:03:43.147Z,14.39
2022-10-15T23:06:15.750Z,14.24
2022-10-15T23:08:43.805Z,14.19
2022-10-15T23:11:13.720Z,14.14
2022-10-15T23:13:41.205Z,14.05
2022-10-15T23:16:10.780Z,14.07
2022-10-15T23:18:37.522Z,14.06
2022-10-15T23:21:06.749Z,14.04
2022-10-15T23:23:33.704Z,14.12
2022-10-15T23:26:00.392Z,14.07
2022-10-15T23:28:27.150Z,14.00
2022-10-15T23:30:53.892Z,13.91
2022-10-15T23:33:20.577Z,13.96
2022-10-15T23:35:56.554Z,14.04
2022-10-15T23:38:23.303Z,14.08
2022-10-15T23:40:51.729Z,14.06
2022-10-15T23:43:18.499Z,13.96
2022-10-15T23:45:45.147Z,13.91
2022-10-15T23:48:11.834Z,13.99
2022-10-15T23:50:39.678Z,13.84
2022-10-15T23:53:06.262Z,13.80
2022-10-15T23:55:38.072Z,13.86
2022-10-15T23:58:04.718Z,13.75
